Time;durP1;ratioP1;P1;durP2;ratioP2;P2;SDS_P1;SDS_P2;PMS_P1;PMS_P2;Temp;Humidity;BMP_temperature;BMP_pressure;BME280_temperature;BME280_humidity;BME280_pressure;Samples;Min_cycle;Max_cycle;Signal;HPM_P1;HPM_P2
2021/01/12 00:01:25;;;;;;;9.75;2.55;;;;;;;;;;5038122;28;20037;-61
2021/01/12 00:03:53;;;;;;;7.00;3.42;;;;;;;;;;5043513;28;20103;-61
2021/01/12 00:06:19;;;;;;;7.47;2.85;;;;;;;;;;5039240;28;20065;-61
2021/01/12 00:08:45;;;;;;;7.07;2.63;;;;;;;;;;5041775;28;20053;-61
2021/01/12 00:11:12;;;;;;;5.20;2.22;;;;;;;;;;5037534;28;20054;-61
2021/01/12 00:13:38;;;;;;;8.35;3.67;;;;;;;;;;5041573;28;20047;-61
2021/01/12 00:16:04;;;;;;;9.45;2.80;;;;;;;;;;5037811;28;20037;-61
2021/01/12 00:18:31;;;;;;;5.85;2.13;;;;;;;;;;5040642;28;20030;-61
2021/01/12 00:20:58;;;;;;;9.02;2.90;;;;;;;;;;5037510;28;20033;-61
2021/01/12 00:23:23;;;;;;;5.32;2.38;;;;;;;;;;5041538;28;20052;-61
2021/01/12 00:25:49;;;;;;;6.20;2.80;;;;;;;;;;5037346;28;20041;-61
2021/01/12 00:28:16;;;;;;;5.88;2.90;;;;;;;;;;5022397;28;20053;-61
2021/01/12 00:30:42;;;;;;;5.95;2.90;;;;;;;;;;5037282;28;20042;-61
2021/01/12 00:33:08;;;;;;;4.00;2.08;;;;;;;;;;5037856;28;20057;-61
2021/01/12 00:35:35;;;;;;;4.68;2.30;;;;;;;;;;5041266;28;20147;-61
2021/01/12 00:38:01;;;;;;;4.35;2.22;;;;;;;;;;5035940;28;20029;-61
2021/01/12 00:40:27;;;;;;;6.38;2.53;;;;;;;;;;5040545;28;20066;-61
2021/01/12 00:42:53;;;;;;;6.10;2.28;;;;;;;;;;5036687;28;20064;-62
2021/01/12 00:45:19;;;;;;;4.95;2.08;;;;;;;;;;5040258;28;20080;-61
2021/01/12 00:47:45;;;;;;;5.57;2.25;;;;;;;;;;5037118;28;20045;-61
2021/01/12 00:50:11;;;;;;;4.22;2.08;;;;;;;;;;5039487;28;20037;-61
2021/01/12 00:52:38;;;;;;;4.82;2.15;;;;;;;;;;5037558;28;20052;-62
2021/01/12 00:55:05;;;;;;;4.13;2.05;;;;;;;;;;5041642;28;20099;-61
2021/01/12 00:57:31;;;;;;;6.72;2.33;;;;;;;;;;5035975;28;20053;-61
2021/01/12 00:59:57;;;;;;;4.95;2.17;;;;;;;;;;5041881;28;20112;-62
2021/01/12 01:02:23;;;;;;;4.28;2.17;;;;;;;;;;5051542;28;20044;-61
2021/01/12 01:04:49;;;;;;;4.47;2.25;;;;;;;;;;5040394;28;20122;-61
2021/01/12 01:07:15;;;;;;;4.55;1.85;;;;;;;;;;5059953;28;20037;-61
2021/01/12 01:09:42;;;;;;;5.93;2.53;;;;;;;;;;5034924;28;20073;-61
2021/01/12 01:12:12;;;;;;;6.95;2.42;;;;;;;;;;5040833;28;20037;-61
2021/01/12 01:14:38;;;;;;;3.22;1.45;;;;;;;;;;5036578;28;20041;-61
2021/01/12 01:17:04;;;;;;;4.53;2.00;;;;;;;;;;5039624;28;20176;-61
2021/01/12 01:19:31;;;;;;;5.03;1.70;;;;;;;;;;5037018;28;20047;-61
2021/01/12 01:21:58;;;;;;;3.15;1.52;;;;;;;;;;5039695;28;20045;-60
2021/01/12 01:24:24;;;;;;;3.40;1.67;;;;;;;;;;5040499;28;20114;-61
2021/01/12 01:26:56;;;;;;;3.30;1.45;;;;;;;;;;5043883;28;20040;-61
2021/01/12 01:29:22;;;;;;;2.83;1.48;;;;;;;;;;5038904;28;20036;-61
2021/01/12 01:31:56;;;;;;;2.78;1.52;;;;;;;;;;5045419;28;20056;-61
2021/01/12 01:34:22;;;;;;;3.65;0.88;;;;;;;;;;5039960;28;20087;-61
2021/01/12 01:36:48;;;;;;;2.60;1.30;;;;;;;;;;5042742;28;20037;-61
2021/01/12 01:39:14;;;;;;;3.10;1.48;;;;;;;;;;5038999;28;20045;-61
2021/01/12 01:41:41;;;;;;;2.10;1.00;;;;;;;;;;5041896;28;20107;-61
2021/01/12 01:44:09;;;;;;;2.38;1.23;;;;;;;;;;5023459;28;20049;-61
2021/01/12 01:46:35;;;;;;;2.20;1.30;;;;;;;;;;5043844;28;20037;-61
2021/01/12 01:49:01;;;;;;;3.22;1.40;;;;;;;;;;5040659;28;20388;-61
2021/01/12 01:51:27;;;;;;;4.03;1.30;;;;;;;;;;5040586;28;20084;-61
2021/01/12 01:53:53;;;;;;;2.88;1.30;;;;;;;;;;5043506;28;20029;-61
2021/01/12 01:56:20;;;;;;;2.65;1.30;;;;;;;;;;5040891;28;20048;-61
2021/01/12 01:58:46;;;;;;;3.70;2.00;;;;;;;;;;5041583;28;20052;-61
2021/01/12 02:01:14;;;;;;;2.72;1.55;;;;;;;;;;5039651;28;20045;-61
2021/01/12 02:03:44;;;;;;;2.28;1.25;;;;;;;;;;5042391;28;20053;-61
2021/01/12 02:06:14;;;;;;;4.88;2.08;;;;;;;;;;5039087;28;20041;-61
2021/01/12 02:08:45;;;;;;;4.65;2.00;;;;;;;;;;5042401;28;20049;-61
2021/01/12 02:11:12;;;;;;;3.88;1.60;;;;;;;;;;5038814;28;20111;-61
2021/01/12 02:13:39;;;;;;;3.78;1.77;;;;;;;;;;5042145;28;20048;-61
2021/01/12 02:16:06;;;;;;;3.10;1.65;;;;;;;;;;5038417;28;20060;-61
2021/01/12 02:18:36;;;;;;;7.32;1.90;;;;;;;;;;5042845;28;20048;-61
2021/01/12 02:21:03;;;;;;;3.35;1.70;;;;;;;;;;5041688;28;20045;-61
2021/01/12 02:23:37;;;;;;;4.05;1.70;;;;;;;;;;5035347;28;20041;-61
2021/01/12 02:26:04;;;;;;;6.70;2.33;;;;;;;;;;5026145;28;20037;-61
2021/01/12 02:28:29;;;;;;;7.97;2.05;;;;;;;;;;5044402;28;20050;-61
2021/01/12 02:30:57;;;;;;;4.45;1.90;;;;;;;;;;5039493;28;20119;-61
2021/01/12 02:33:23;;;;;;;7.57;2.28;;;;;;;;;;5041640;28;20048;-61
2021/01/12 02:35:53;;;;;;;4.53;2.35;;;;;;;;;;5041569;28;20037;-61
2021/01/12 02:38:19;;;;;;;6.32;1.92;;;;;;;;;;5043630;28;20041;-61
2021/01/12 02:40:46;;;;;;;5.35;1.70;;;;;;;;;;5042564;28;20045;-61
2021/01/12 02:43:13;;;;;;;5.60;2.00;;;;;;;;;;5039150;28;20052;-61
2021/01/12 02:45:39;;;;;;;3.63;1.67;;;;;;;;;;5041658;28;20041;-62
2021/01/12 02:48:06;;;;;;;3.80;2.00;;;;;;;;;;5040637;28;20100;-60
2021/01/12 02:50:32;;;;;;;3.22;1.50;;;;;;;;;;5043060;28;20043;-61
2021/01/12 02:52:58;;;;;;;3.40;1.60;;;;;;;;;;5039391;28;20045;-61
2021/01/12 02:55:24;;;;;;;5.45;1.63;;;;;;;;;;5043964;28;20041;-61
2021/01/12 02:57:50;;;;;;;4.45;1.38;;;;;;;;;;5040433;28;20098;-61
2021/01/12 03:00:18;;;;;;;3.53;1.48;;;;;;;;;;5044972;28;20105;-61
2021/01/12 03:02:44;;;;;;;3.38;1.48;;;;;;;;;;5038941;28;20049;-61
2021/01/12 03:05:10;;;;;;;7.43;2.28;;;;;;;;;;5040797;28;20043;-61
2021/01/12 03:07:36;;;;;;;6.55;1.60;;;;;;;;;;5038859;28;20038;-61
2021/01/12 03:10:03;;;;;;;6.97;1.40;;;;;;;;;;5041739;28;20040;-61
2021/01/12 03:12:30;;;;;;;6.00;1.58;;;;;;;;;;5038624;28;20041;-61
2021/01/12 03:14:55;;;;;;;2.08;1.30;;;;;;;;;;5042775;28;20033;-61
2021/01/12 03:17:22;;;;;;;2.70;1.23;;;;;;;;;;5040546;28;20099;-61
2021/01/12 03:19:49;;;;;;;10.23;1.55;;;;;;;;;;5038800;28;20071;-61
2021/01/12 03:22:15;;;;;;;2.50;1.13;;;;;;;;;;5041911;28;20052;-61
2021/01/12 03:24:41;;;;;;;4.25;1.27;;;;;;;;;;5037880;28;20058;-61
2021/01/12 03:27:07;;;;;;;1.67;0.95;;;;;;;;;;5041807;28;20041;-61
2021/01/12 03:29:33;;;;;;;1.45;0.90;;;;;;;;;;5036462;28;20041;-61
2021/01/12 03:32:00;;;;;;;5.88;1.10;;;;;;;;;;5042528;28;20061;-61
2021/01/12 03:34:26;;;;;;;10.00;1.27;;;;;;;;;;5038749;28;20045;-61
2021/01/12 03:36:52;;;;;;;4.70;1.15;;;;;;;;;;5041537;28;20057;-61
2021/01/12 03:39:18;;;;;;;4.05;0.90;;;;;;;;;;5036800;28;20137;-61
2021/01/12 03:41:45;;;;;;;1.60;0.70;;;;;;;;;;5037554;28;20138;-61
2021/01/12 03:44:11;;;;;;;6.53;1.02;;;;;;;;;;5025203;28;20053;-61
2021/01/12 03:46:37;;;;;;;1.92;1.00;;;;;;;;;;5041160;28;20029;-61
2021/01/12 03:49:03;;;;;;;7.72;1.20;;;;;;;;;;5037083;28;20053;-61
2021/01/12 03:51:30;;;;;;;3.75;1.00;;;;;;;;;;5042030;28;20051;-61
2021/01/12 03:53:58;;;;;;;2.72;1.00;;;;;;;;;;5040396;28;20061;-61
2021/01/12 03:56:24;;;;;;;3.75;0.82;;;;;;;;;;5042230;28;20041;-61
2021/01/12 03:58:50;;;;;;;1.30;0.73;;;;;;;;;;5042499;28;20094;-61
2021/01/12 04:01:16;;;;;;;4.53;1.10;;;;;;;;;;5035789;28;20041;-61
2021/01/12 04:03:42;;;;;;;7.55;1.35;;;;;;;;;;5041849;28;20033;-61
2021/01/12 04:06:10;;;;;;;1.80;1.05;;;;;;;;;;5038565;28;20048;-61
2021/01/12 04:08:37;;;;;;;6.57;1.27;;;;;;;;;;5042213;28;20040;-61
2021/01/12 04:11:04;;;;;;;2.55;0.98;;;;;;;;;;5048482;28;20052;-61
2021/01/12 04:13:30;;;;;;;2.47;0.95;;;;;;;;;;5040490;28;20053;-61
2021/01/12 04:15:58;;;;;;;3.97;1.00;;;;;;;;;;5039518;28;20048;-61
2021/01/12 04:18:24;;;;;;;2.58;0.90;;;;;;;;;;5041811;28;20037;-61
2021/01/12 04:20:50;;;;;;;3.22;1.20;;;;;;;;;;5038943;28;20052;-61
2021/01/12 04:23:16;;;;;;;9.02;1.30;;;;;;;;;;5041722;28;20041;-60
2021/01/12 04:25:43;;;;;;;4.00;1.05;;;;;;;;;;5039430;28;20061;-61
2021/01/12 04:28:09;;;;;;;6.72;1.10;;;;;;;;;;5043931;28;20033;-61
2021/01/12 04:30:35;;;;;;;3.83;1.40;;;;;;;;;;5038830;28;20123;-61
2021/01/12 04:33:00;;;;;;;2.38;1.08;;;;;;;;;;5041852;28;20048;-61
2021/01/12 04:35:26;;;;;;;6.90;1.42;;;;;;;;;;5039951;28;20049;-61
2021/01/12 04:37:52;;;;;;;3.05;1.20;;;;;;;;;;5036210;28;20045;-61
2021/01/12 04:40:18;;;;;;;6.70;0.90;;;;;;;;;;5039806;28;20041;-61
2021/01/12 04:42:46;;;;;;;6.35;1.20;;;;;;;;;;5037357;28;20056;-61
2021/01/12 04:45:12;;;;;;;2.25;0.80;;;;;;;;;;5039178;28;20076;-61
2021/01/12 04:47:38;;;;;;;3.38;1.00;;;;;;;;;;5035769;28;20037;-61
2021/01/12 04:50:05;;;;;;;3.97;0.93;;;;;;;;;;5039563;28;20071;-61
2021/01/12 04:52:42;;;;;;;3.55;0.93;;;;;;;;;;5038066;28;20052;-61
2021/01/12 04:55:08;;;;;;;7.53;1.15;;;;;;;;;;5039397;28;20057;-61
2021/01/12 04:57:34;;;;;;;1.77;0.95;;;;;;;;;;5039016;28;20042;-61
2021/01/12 05:00:01;;;;;;;5.18;1.23;;;;;;;;;;5043850;28;20091;-61
2021/01/12 05:02:27;;;;;;;1.48;0.82;;;;;;;;;;5039153;28;20045;-61
2021/01/12 05:04:55;;;;;;;4.38;1.30;;;;;;;;;;5042531;28;20026;-60
2021/01/12 05:07:21;;;;;;;3.90;1.20;;;;;;;;;;5039553;28;20044;-61
2021/01/12 05:09:47;;;;;;;2.85;1.23;;;;;;;;;;5043758;28;20041;-61
2021/01/12 05:12:14;;;;;;;2.45;1.20;;;;;;;;;;5040813;28;20033;-61
2021/01/12 05:14:41;;;;;;;2.13;1.02;;;;;;;;;;5043418;28;20102;-60
2021/01/12 05:17:08;;;;;;;1.48;1.00;;;;;;;;;;5041093;28;20040;-61
2021/01/12 05:19:34;;;;;;;6.15;1.05;;;;;;;;;;5059544;28;20062;-60
2021/01/12 05:22:05;;;;;;;3.17;1.20;;;;;;;;;;5043178;28;20041;-60
2021/01/12 05:24:39;;;;;;;5.55;1.08;;;;;;;;;;5041914;28;20029;-60
2021/01/12 05:27:06;;;;;;;7.75;1.45;;;;;;;;;;5042854;28;20141;-60
2021/01/12 05:29:33;;;;;;;2.20;1.05;;;;;;;;;;5041169;28;20111;-60
2021/01/12 05:32:02;;;;;;;4.15;1.25;;;;;;;;;;5042927;28;20037;-60
2021/01/12 05:34:29;;;;;;;6.45;1.33;;;;;;;;;;5040400;28;20056;-60
2021/01/12 05:36:56;;;;;;;7.15;1.30;;;;;;;;;;5043821;28;20057;-60
2021/01/12 05:39:23;;;;;;;3.20;1.05;;;;;;;;;;5039458;28;20053;-60
2021/01/12 05:41:50;;;;;;;4.18;1.30;;;;;;;;;;5039714;28;20038;-60
2021/01/12 05:44:16;;;;;;;4.13;1.05;;;;;;;;;;5030771;28;20034;-60
2021/01/12 05:46:43;;;;;;;2.47;0.90;;;;;;;;;;5044725;28;20037;-60
2021/01/12 05:49:09;;;;;;;3.70;1.20;;;;;;;;;;5041331;28;20049;-60
2021/01/12 05:51:42;;;;;;;4.05;1.27;;;;;;;;;;5042965;28;20037;-60
2021/01/12 05:54:09;;;;;;;3.17;1.13;;;;;;;;;;5042227;28;20043;-60
2021/01/12 05:56:37;;;;;;;3.38;1.20;;;;;;;;;;5045659;28;20037;-60
2021/01/12 05:59:07;;;;;;;4.47;1.50;;;;;;;;;;5041675;28;20049;-60
2021/01/12 06:01:44;;;;;;;8.48;1.67;;;;;;;;;;5043630;28;20041;-60
2021/01/12 06:04:12;;;;;;;4.72;1.50;;;;;;;;;;5039718;28;20048;-60
2021/01/12 06:06:38;;;;;;;2.08;1.10;;;;;;;;;;5043936;28;20134;-60
2021/01/12 06:09:06;;;;;;;3.72;1.10;;;;;;;;;;5042134;28;20045;-60
2021/01/12 06:11:33;;;;;;;2.58;1.33;;;;;;;;;;5039184;28;20042;-60
2021/01/12 06:14:11;;;;;;;1.58;1.17;;;;;;;;;;5022893;28;20046;-61
2021/01/12 06:16:39;;;;;;;8.10;1.10;;;;;;;;;;5039147;28;20075;-60
2021/01/12 06:19:06;;;;;;;2.77;1.40;;;;;;;;;;5034016;28;20033;-60
2021/01/12 06:21:35;;;;;;;5.18;1.30;;;;;;;;;;5040167;28;20053;-61
2021/01/12 06:24:01;;;;;;;;;;;;;;;;;;5045217;28;20122;-61
2021/01/12 06:26:28;;;;;;;3.85;1.52;;;;;;;;;;5037798;28;19924;-60
2021/01/12 06:28:54;;;;;;;4.18;1.70;;;;;;;;;;5042216;28;20037;-60
2021/01/12 06:31:20;;;;;;;7.45;1.80;;;;;;;;;;5038573;28;20085;-60
2021/01/12 06:33:55;;;;;;;10.48;1.83;;;;;;;;;;5043158;28;20116;-60
2021/01/12 06:36:24;;;;;;;3.83;1.45;;;;;;;;;;5037439;28;20048;-61
2021/01/12 06:38:50;;;;;;;5.85;1.63;;;;;;;;;;5040750;28;20044;-60
2021/01/12 06:41:20;;;;;;;3.60;1.65;;;;;;;;;;5038301;28;20052;-61
2021/01/12 06:43:48;;;;;;;6.22;1.95;;;;;;;;;;5041254;28;20053;-60
2021/01/12 06:46:16;;;;;;;4.05;1.45;;;;;;;;;;5028884;28;20049;-60
2021/01/12 06:48:42;;;;;;;12.43;1.42;;;;;;;;;;5041881;28;20099;-60
2021/01/12 06:51:09;;;;;;;3.38;0.85;;;;;;;;;;5040782;28;20117;-60
2021/01/12 06:53:35;;;;;;;4.75;0.85;;;;;;;;;;5043291;28;20114;-60
2021/01/12 06:56:04;;;;;;;7.18;1.17;;;;;;;;;;5038346;28;20089;-61
2021/01/12 06:58:31;;;;;;;3.47;1.10;;;;;;;;;;5043489;28;20037;-61
2021/01/12 07:00:59;;;;;;;4.05;0.98;;;;;;;;;;5044097;28;20041;-60
2021/01/12 07:03:28;;;;;;;4.63;1.02;;;;;;;;;;5039173;28;20041;-60
2021/01/12 07:05:58;;;;;;;4.03;0.90;;;;;;;;;;5043169;28;20056;-60
2021/01/12 07:08:26;;;;;;;1.27;0.50;;;;;;;;;;5039949;28;20114;-60
2021/01/12 07:10:53;;;;;;;4.38;0.55;;;;;;;;;;5043716;28;20021;-60
2021/01/12 07:13:18;;;;;;;4.43;0.63;;;;;;;;;;5037787;28;20123;-61
2021/01/12 07:15:45;;;;;;;3.20;0.55;;;;;;;;;;5043438;28;20057;-60
2021/01/12 07:18:12;;;;;;;7.10;0.70;;;;;;;;;;5039489;28;20034;-60
2021/01/12 07:20:52;;;;;;;5.53;0.75;;;;;;;;;;5045183;28;20116;-60
2021/01/12 07:23:19;;;;;;;4.07;0.52;;;;;;;;;;5042349;28;20077;-60
2021/01/12 07:25:45;;;;;;;2.03;0.50;;;;;;;;;;5045518;28;20038;-61
2021/01/12 07:28:16;;;;;;;7.50;0.88;;;;;;;;;;5040119;28;20037;-61
2021/01/12 07:30:43;;;;;;;6.57;0.70;;;;;;;;;;5041941;28;20048;-61
2021/01/12 07:33:17;;;;;;;2.53;0.68;;;;;;;;;;5040158;28;20041;-60
2021/01/12 07:35:45;;;;;;;3.30;0.60;;;;;;;;;;5043740;28;20045;-61
2021/01/12 07:38:13;;;;;;;6.73;0.63;;;;;;;;;;5038934;28;20033;-60
2021/01/12 07:40:40;;;;;;;19.58;6.18;;;;;;;;;;5042968;28;20060;-60
2021/01/12 07:43:06;;;;;;;16.75;4.90;;;;;;;;;;5039047;28;20067;-61
2021/01/12 07:45:33;;;;;;;1.27;0.77;;;;;;;;;;5041256;28;20045;-60
2021/01/12 07:47:59;;;;;;;4.25;0.50;;;;;;;;;;5038205;28;20045;-60
2021/01/12 07:50:29;;;;;;;2.85;0.63;;;;;;;;;;5041986;28;20064;-60
2021/01/12 07:52:56;;;;;;;2.58;0.75;;;;;;;;;;5025801;28;20092;-61
2021/01/12 07:55:23;;;;;;;1.00;0.50;;;;;;;;;;5033198;28;20091;-60
2021/01/12 07:57:49;;;;;;;1.20;0.30;;;;;;;;;;5039297;28;20053;-60
2021/01/12 08:00:16;;;;;;;5.30;0.60;;;;;;;;;;5037740;28;20049;-60
2021/01/12 08:02:43;;;;;;;1.08;0.50;;;;;;;;;;5042773;28;20084;-60
2021/01/12 08:05:10;;;;;;;2.20;0.60;;;;;;;;;;5039452;28;20041;-60
2021/01/12 08:07:41;;;;;;;7.30;0.70;;;;;;;;;;5027258;28;20034;-61
2021/01/12 08:10:08;;;;;;;3.50;0.63;;;;;;;;;;5018918;28;20054;-61
2021/01/12 08:12:35;;;;;;;3.95;0.60;;;;;;;;;;5020325;28;20094;-61
2021/01/12 08:15:08;;;;;;;1.85;0.50;;;;;;;;;;5029013;28;20069;-61
2021/01/12 08:17:35;;;;;;;8.52;0.85;;;;;;;;;;5021619;28;20050;-61
2021/01/12 08:20:03;;;;;;;7.47;0.80;;;;;;;;;;5017547;28;20033;-61
2021/01/12 08:22:31;;;;;;;4.82;0.88;;;;;;;;;;5012753;28;20149;-61
2021/01/12 08:25:05;;;;;;;3.72;1.42;;;;;;;;;;5034924;28;20026;-61
2021/01/12 08:27:33;;;;;;;4.82;1.30;;;;;;;;;;5039244;28;20045;-61
2021/01/12 08:30:00;;;;;;;3.22;1.40;;;;;;;;;;5036019;28;20056;-61
2021/01/12 08:32:31;;;;;;;2.53;1.10;;;;;;;;;;5029876;28;20025;-61
2021/01/12 08:35:02;;;;;;;2.72;1.33;;;;;;;;;;5036554;28;20060;-61
2021/01/12 08:37:33;;;;;;;5.50;1.30;;;;;;;;;;5034358;28;20121;-61
2021/01/12 08:40:11;;;;;;;3.22;1.20;;;;;;;;;;5024583;28;20042;-61
2021/01/12 08:42:42;;;;;;;3.58;1.48;;;;;;;;;;5004787;28;20050;-61
2021/01/12 08:45:15;;;;;;;6.05;1.40;;;;;;;;;;4989657;28;20033;-61
2021/01/12 08:47:42;;;;;;;3.35;1.00;;;;;;;;;;4995202;28;20218;-61
2021/01/12 08:50:11;;;;;;;4.07;1.25;;;;;;;;;;5002800;28;20042;-61
2021/01/12 08:52:45;;;;;;;5.45;1.40;;;;;;;;;;5010022;28;20092;-62
2021/01/12 08:55:19;;;;;;;2.65;1.15;;;;;;;;;;5022074;28;20038;-61
2021/01/12 08:57:59;;;;;;;3.63;1.20;;;;;;;;;;5015713;28;20050;-61
2021/01/12 09:00:31;;;;;;;1.70;0.90;;;;;;;;;;5012897;28;20034;-61
2021/01/12 09:02:57;;;;;;;3.67;0.88;;;;;;;;;;5001301;28;20056;-61
2021/01/12 09:05:24;;;;;;;6.05;0.93;;;;;;;;;;5002328;28;20055;-61
2021/01/12 09:08:03;;;;;;;1.13;0.60;;;;;;;;;;4998714;28;20046;-61
2021/01/12 09:10:28;;;;;;;;;;;;;;;;;;5002325;28;20110;-61
2021/01/12 09:12:58;;;;;;;3.83;0.52;;;;;;;;;;5011030;28;19917;-61
2021/01/12 09:15:25;;;;;;;1.92;0.60;;;;;;;;;;5022132;28;20061;-61
2021/01/12 09:18:00;;;;;;;3.55;0.50;;;;;;;;;;5015496;28;20041;-61
2021/01/12 09:20:27;;;;;;;8.00;1.27;;;;;;;;;;5019276;28;20082;-62
2021/01/12 09:22:53;;;;;;;5.38;1.00;;;;;;;;;;4998786;28;20034;-61
2021/01/12 09:25:24;;;;;;;5.15;0.65;;;;;;;;;;5001699;28;20034;-61
2021/01/12 09:27:51;;;;;;;0.70;0.45;;;;;;;;;;4997751;28;20042;-61
2021/01/12 09:30:23;;;;;;;2.30;0.65;;;;;;;;;;4999195;28;20058;-61
2021/01/12 09:32:49;;;;;;;3.63;0.90;;;;;;;;;;5021181;28;20045;-61
2021/01/12 09:35:20;;;;;;;4.60;0.88;;;;;;;;;;5039316;28;20049;-61
2021/01/12 09:37:54;;;;;;;3.13;0.90;;;;;;;;;;5034751;28;20040;-62
2021/01/12 09:40:20;;;;;;;4.60;1.15;;;;;;;;;;5038649;28;20045;-62
2021/01/12 09:42:47;;;;;;;3.67;1.00;;;;;;;;;;5053523;28;20047;-62
2021/01/12 09:45:13;;;;;;;7.40;1.38;;;;;;;;;;5038636;28;20049;-62
2021/01/12 09:47:41;;;;;;;8.45;2.95;;;;;;;;;;5019869;28;20056;-63
2021/01/12 09:50:08;;;;;;;69.55;57.92;;;;;;;;;;5008697;28;20041;-62
2021/01/12 09:52:34;;;;;;;71.28;53.80;;;;;;;;;;5023558;28;20041;-61
2021/01/12 09:55:00;;;;;;;13.23;3.47;;;;;;;;;;5038421;28;20089;-61
2021/01/12 09:57:26;;;;;;;9.27;2.05;;;;;;;;;;5040433;28;20042;-62
2021/01/12 09:59:55;;;;;;;9.95;1.38;;;;;;;;;;5019351;28;20045;-61
2021/01/12 10:02:21;;;;;;;14.07;1.48;;;;;;;;;;5023545;28;20150;-62
2021/01/12 10:04:49;;;;;;;5.22;1.38;;;;;;;;;;5023292;28;20144;-62
2021/01/12 10:07:18;;;;;;;7.78;0.80;;;;;;;;;;5043937;28;20045;-62
2021/01/12 10:09:44;;;;;;;5.90;0.63;;;;;;;;;;5040501;28;20044;-62
2021/01/12 10:12:10;;;;;;;2.15;0.85;;;;;;;;;;5041098;28;20053;-62
2021/01/12 10:14:36;;;;;;;9.35;0.77;;;;;;;;;;5056373;28;20041;-62
2021/01/12 10:17:03;;;;;;;6.45;0.77;;;;;;;;;;5036309;28;20042;-61
2021/01/12 10:19:29;;;;;;;5.80;0.93;;;;;;;;;;5037370;28;20048;-61
2021/01/12 10:21:58;;;;;;;2.53;0.52;;;;;;;;;;5047350;28;20037;-61
2021/01/12 10:24:24;;;;;;;9.77;0.93;;;;;;;;;;5036195;28;20051;-61
2021/01/12 10:26:52;;;;;;;12.85;0.88;;;;;;;;;;5023771;28;20042;-61
2021/01/12 10:29:18;;;;;;;5.10;0.63;;;;;;;;;;5017347;28;20111;-62
2021/01/12 10:31:45;;;;;;;4.32;0.50;;;;;;;;;;5024952;28;20038;-61
2021/01/12 10:34:11;;;;;;;1.25;0.32;;;;;;;;;;5031582;28;20045;-61
2021/01/12 10:36:41;;;;;;;5.45;0.40;;;;;;;;;;5038365;28;20037;-61
2021/01/12 10:39:09;;;;;;;0.45;0.20;;;;;;;;;;5039788;28;20056;-61
2021/01/12 10:41:40;;;;;;;3.30;0.40;;;;;;;;;;5038283;28;20051;-61
2021/01/12 10:44:06;;;;;;;1.55;0.30;;;;;;;;;;5042579;28;20037;-61
2021/01/12 10:46:32;;;;;;;4.15;0.40;;;;;;;;;;5039454;28;20103;-61
2021/01/12 10:48:58;;;;;;;0.98;0.32;;;;;;;;;;5041246;28;20025;-63
2021/01/12 10:51:25;;;;;;;0.80;0.80;;;;;;;;;;5039296;28;20065;-63
2021/01/12 10:53:51;;;;;;;5.25;2.30;;;;;;;;;;5042525;28;20037;-63
2021/01/12 10:56:20;;;;;;;12.88;3.38;;;;;;;;;;5038620;28;20081;-63
2021/01/12 10:58:46;;;;;;;7.57;5.47;;;;;;;;;;5043327;28;20099;-63
2021/01/12 11:01:19;;;;;;;16.40;11.60;;;;;;;;;;5037682;28;20037;-63
2021/01/12 11:03:45;;;;;;;22.95;14.13;;;;;;;;;;5041005;28;20041;-63
2021/01/12 11:06:11;;;;;;;8.25;1.90;;;;;;;;;;5038476;28;20041;-63
2021/01/12 11:08:37;;;;;;;13.27;6.50;;;;;;;;;;5042399;28;20055;-62
2021/01/12 11:11:04;;;;;;;7.38;1.65;;;;;;;;;;5039652;28;20049;-63
2021/01/12 11:13:31;;;;;;;4.60;1.08;;;;;;;;;;5040879;28;20051;-63
2021/01/12 11:15:57;;;;;;;4.15;0.55;;;;;;;;;;5041799;28;20029;-63
2021/01/12 11:18:23;;;;;;;2.72;0.82;;;;;;;;;;5039494;28;20070;-63
2021/01/12 11:20:50;;;;;;;2.45;0.30;;;;;;;;;;5042636;28;20041;-63
2021/01/12 11:23:16;;;;;;;6.18;0.68;;;;;;;;;;5038626;28;20029;-63
2021/01/12 11:25:42;;;;;;;3.30;0.55;;;;;;;;;;5041157;28;20033;-63
2021/01/12 11:28:08;;;;;;;8.57;0.60;;;;;;;;;;5037698;28;20069;-63
2021/01/12 11:30:35;;;;;;;8.88;0.55;;;;;;;;;;5027752;28;20113;-60
2021/01/12 11:33:01;;;;;;;4.25;0.43;;;;;;;;;;5006797;28;20111;-60
2021/01/12 11:35:28;;;;;;;2.10;0.40;;;;;;;;;;5003090;28;20046;-60
2021/01/12 11:37:54;;;;;;;6.38;0.50;;;;;;;;;;4998498;28;20108;-60
2021/01/12 11:40:20;;;;;;;3.35;0.50;;;;;;;;;;5004264;28;20082;-60
2021/01/12 11:42:46;;;;;;;3.67;0.45;;;;;;;;;;5000011;28;20042;-60
2021/01/12 11:45:13;;;;;;;3.90;0.80;;;;;;;;;;5002469;28;20041;-60
2021/01/12 11:47:40;;;;;;;10.75;0.93;;;;;;;;;;5000500;28;20034;-60
2021/01/12 11:50:08;;;;;;;5.22;0.68;;;;;;;;;;5004618;28;20035;-61
2021/01/12 11:52:35;;;;;;;4.03;0.52;;;;;;;;;;5002060;28;20048;-60
2021/01/12 11:55:01;;;;;;;3.03;0.57;;;;;;;;;;5002351;28;20042;-60
2021/01/12 11:57:28;;;;;;;6.97;0.80;;;;;;;;;;5003233;28;20041;-60
2021/01/12 11:59:54;;;;;;;8.30;0.65;;;;;;;;;;5034703;28;20057;-60
2021/01/12 12:02:20;;;;;;;4.28;0.68;;;;;;;;;;5040830;28;20037;-60
2021/01/12 12:04:49;;;;;;;6.20;0.80;;;;;;;;;;5033668;28;20072;-60
2021/01/12 12:07:15;;;;;;;;;;;;;;;;;;5021419;28;20065;-61
2021/01/12 12:09:41;;;;;;;4.38;0.75;;;;;;;;;;5046888;28;19936;-60
2021/01/12 12:12:09;;;;;;;2.60;0.60;;;;;;;;;;5037826;28;20033;-60
2021/01/12 12:14:35;;;;;;;8.45;1.38;;;;;;;;;;5018347;28;20080;-60
2021/01/12 12:17:01;;;;;;;3.88;0.60;;;;;;;;;;5020859;28;20057;-61
2021/01/12 12:19:28;;;;;;;6.93;0.60;;;;;;;;;;5018809;28;20049;-61
2021/01/12 12:21:56;;;;;;;8.98;0.98;;;;;;;;;;5036158;28;20151;-61
2021/01/12 12:24:22;;;;;;;7.45;0.93;;;;;;;;;;5011368;28;20219;-61
2021/01/12 12:26:49;;;;;;;8.30;0.60;;;;;;;;;;5000743;28;20030;-61
2021/01/12 12:29:15;;;;;;;12.25;0.88;;;;;;;;;;5000144;28;20048;-61
2021/01/12 12:31:42;;;;;;;6.43;0.70;;;;;;;;;;5020070;28;20056;-61
2021/01/12 12:34:08;;;;;;;7.88;0.85;;;;;;;;;;5018045;28;20041;-61
2021/01/12 12:36:34;;;;;;;8.13;0.63;;;;;;;;;;5018423;28;20115;-61
2021/01/12 12:39:01;;;;;;;5.18;0.60;;;;;;;;;;5021219;28;20041;-61
2021/01/12 12:41:31;;;;;;;6.18;0.90;;;;;;;;;;5039063;28;20040;-61
2021/01/12 12:43:58;;;;;;;3.42;0.45;;;;;;;;;;5039661;28;20041;-61
2021/01/12 12:46:24;;;;;;;8.50;0.90;;;;;;;;;;5021017;28;20054;-61
2021/01/12 12:48:50;;;;;;;4.53;0.60;;;;;;;;;;5022170;28;20053;-61
2021/01/12 12:51:19;;;;;;;3.20;0.50;;;;;;;;;;5015281;28;20066;-61
2021/01/12 12:53:48;;;;;;;7.68;0.73;;;;;;;;;;5001845;28;20111;-61
2021/01/12 12:56:16;;;;;;;5.05;0.63;;;;;;;;;;5009907;28;20048;-61
2021/01/12 12:58:43;;;;;;;8.18;0.73;;;;;;;;;;5020826;28;20117;-62
2021/01/12 13:01:09;;;;;;;9.77;0.80;;;;;;;;;;5000845;28;20123;-62
2021/01/12 13:03:36;;;;;;;7.05;0.95;;;;;;;;;;5032775;28;20038;-61
2021/01/12 13:06:03;;;;;;;3.40;0.70;;;;;;;;;;5018190;28;20052;-61
2021/01/12 13:08:29;;;;;;;18.20;1.50;;;;;;;;;;5026434;28;20037;-61
2021/01/12 13:10:57;;;;;;;4.20;0.47;;;;;;;;;;5036334;28;20069;-61
2021/01/12 13:13:25;;;;;;;6.45;0.70;;;;;;;;;;5040866;28;20118;-61
2021/01/12 13:15:51;;;;;;;4.05;0.50;;;;;;;;;;5038576;28;20025;-61
2021/01/12 13:18:22;;;;;;;3.20;0.68;;;;;;;;;;5041508;28;20033;-61
2021/01/12 13:20:49;;;;;;;3.00;0.57;;;;;;;;;;5045512;28;20041;-61
2021/01/12 13:23:16;;;;;;;3.53;0.47;;;;;;;;;;5040980;28;20044;-61
2021/01/12 13:25:43;;;;;;;6.25;0.63;;;;;;;;;;5044316;28;20041;-61
2021/01/12 13:28:09;;;;;;;4.68;0.90;;;;;;;;;;5038987;28;20053;-61
2021/01/12 13:30:40;;;;;;;2.58;0.60;;;;;;;;;;5045838;28;20033;-61
2021/01/12 13:33:06;;;;;;;9.00;0.60;;;;;;;;;;5041285;28;20082;-61
2021/01/12 13:35:32;;;;;;;3.83;0.40;;;;;;;;;;5044786;28;20073;-61
2021/01/12 13:37:58;;;;;;;5.32;0.75;;;;;;;;;;5041762;28;20068;-61
2021/01/12 13:40:24;;;;;;;8.85;0.85;;;;;;;;;;5042178;28;20033;-61
2021/01/12 13:42:52;;;;;;;9.13;0.93;;;;;;;;;;5037215;28;20052;-61
2021/01/12 13:45:19;;;;;;;7.73;0.80;;;;;;;;;;5044503;28;20065;-61
2021/01/12 13:47:46;;;;;;;6.78;0.88;;;;;;;;;;5040479;28;20313;-61
2021/01/12 13:50:12;;;;;;;8.57;0.90;;;;;;;;;;5043032;28;20049;-61
2021/01/12 13:52:39;;;;;;;4.55;0.57;;;;;;;;;;5038994;28;20136;-61
2021/01/12 13:55:06;;;;;;;6.63;0.63;;;;;;;;;;5042945;28;20056;-61
2021/01/12 13:57:33;;;;;;;5.07;0.93;;;;;;;;;;5040230;28;20029;-60
2021/01/12 14:00:00;;;;;;;5.90;0.57;;;;;;;;;;5043178;28;20049;-61
2021/01/12 14:02:27;;;;;;;6.70;0.80;;;;;;;;;;5043610;28;20033;-61
2021/01/12 14:04:54;;;;;;;6.13;0.75;;;;;;;;;;5037665;28;20041;-61
2021/01/12 14:07:20;;;;;;;5.57;0.68;;;;;;;;;;5043714;28;20037;-61
2021/01/12 14:09:47;;;;;;;5.82;0.82;;;;;;;;;;5039334;28;20131;-61
2021/01/12 14:12:14;;;;;;;5.97;1.20;;;;;;;;;;5044073;28;20045;-62
2021/01/12 14:14:42;;;;;;;3.50;0.65;;;;;;;;;;5039892;28;20119;-61
2021/01/12 14:17:09;;;;;;;6.20;0.70;;;;;;;;;;5042321;28;20146;-61
2021/01/12 14:19:35;;;;;;;3.20;0.90;;;;;;;;;;5039662;28;20095;-61
2021/01/12 14:22:04;;;;;;;8.55;0.93;;;;;;;;;;5042947;28;20078;-61
2021/01/12 14:24:31;;;;;;;6.78;0.73;;;;;;;;;;5040015;28;20061;-61
2021/01/12 14:26:57;;;;;;;7.30;0.55;;;;;;;;;;5043405;28;20065;-61
2021/01/12 14:29:23;;;;;;;4.50;0.73;;;;;;;;;;5039702;28;20064;-61
2021/01/12 14:31:51;;;;;;;3.47;0.45;;;;;;;;;;5043185;28;20056;-61
2021/01/12 14:34:18;;;;;;;12.18;1.00;;;;;;;;;;5041333;28;20060;-61
2021/01/12 14:36:47;;;;;;;5.30;0.88;;;;;;;;;;5043748;28;20041;-61
2021/01/12 14:39:21;;;;;;;8.98;0.90;;;;;;;;;;5039336;28;20122;-61
2021/01/12 14:41:49;;;;;;;5.18;0.70;;;;;;;;;;5042413;28;20101;-61
2021/01/12 14:44:18;;;;;;;6.97;0.80;;;;;;;;;;5041136;28;20047;-61